sensor_id;sensor_type;location;lat;lon;timestamp;temperature;humidity
73438;DHT22;66471;56.532;21.020;2024-02-16T06:53:32;6.30;99.90
73438;DHT22;66471;56.532;21.020;2024-02-16T06:55:59;6.50;99.90
73438;DHT22;66471;56.532;21.020;2024-02-16T06:58:26;6.50;99.90
73438;DHT22;66471;56.532;21.020;2024-02-16T07:00:54;6.50;99.90
73438;DHT22;66471;56.532;21.020;2024-02-16T07:03:21;6.40;99.90
73438;DHT22;66471;56.532;21.020;2024-02-16T07:05:49;6.60;99.90
73438;DHT22;66471;56.532;21.020;2024-02-16T07:08:16;6.50;99.90
73438;DHT22;66471;56.532;21.020;2024-02-16T07:10:44;6.60;99.90
73438;DHT22;66471;56.532;21.020;2024-02-16T07:13:11;6.60;99.90
73438;DHT22;66471;56.532;21.020;2024-02-16T07:15:38;6.70;99.90
73438;DHT22;66471;56.532;21.020;2024-02-16T07:18:06;6.60;99.90
73438;DHT22;66471;56.532;21.020;2024-02-16T07:20:34;6.70;99.90
73438;DHT22;66471;56.532;21.020;2024-02-16T07:23:01;6.70;99.90
73438;DHT22;66471;56.532;21.020;2024-02-16T07:25:29;6.50;99.90
73438;DHT22;66471;56.532;21.020;2024-02-16T07:27:56;6.70;99.90
73438;DHT22;66471;56.532;21.020;2024-02-16T07:30:23;6.60;99.90
73438;DHT22;66471;56.532;21.020;2024-02-16T07:33:02;6.80;99.90
73438;DHT22;66471;56.532;21.020;2024-02-16T07:35:30;6.80;99.90
73438;DHT22;66471;56.532;21.020;2024-02-16T07:37:57;6.60;99.90
73438;DHT22;66471;56.532;21.020;2024-02-16T07:40:24;6.70;99.90
73438;DHT22;66471;56.532;21.020;2024-02-16T07:42:51;6.80;99.90
73438;DHT22;66471;56.532;21.020;2024-02-16T07:45:18;6.80;99.90
73438;DHT22;66471;56.532;21.020;2024-02-16T07:47:46;6.60;99.90
73438;DHT22;66471;56.532;21.020;2024-02-16T07:50:18;6.80;99.90
73438;DHT22;66471;56.532;21.020;2024-02-16T07:52:46;6.60;99.90
73438;DHT22;66471;56.532;21.020;2024-02-16T07:55:14;6.80;99.90
73438;DHT22;66471;56.532;21.020;2024-02-16T07:57:41;6.60;99.90
73438;DHT22;66471;56.532;21.020;2024-02-16T08:00:08;6.80;99.90
73438;DHT22;66471;56.532;21.020;2024-02-16T08:02:38;6.80;99.90
73438;DHT22;66471;56.532;21.020;2024-02-16T08:05:07;6.70;99.90
73438;DHT22;66471;56.532;21.020;2024-02-16T08:07:35;6.90;99.90
73438;DHT22;66471;56.532;21.020;2024-02-16T08:10:03;6.90;99.90
73438;DHT22;66471;56.532;21.020;2024-02-16T08:12:30;7.00;99.90
73438;DHT22;66471;56.532;21.020;2024-02-16T08:14:58;6.90;99.90
73438;DHT22;66471;56.532;21.020;2024-02-16T08:17:26;7.00;99.90
73438;DHT22;66471;56.532;21.020;2024-02-16T08:19:54;6.90;99.90
73438;DHT22;66471;56.532;21.020;2024-02-16T08:22:22;7.10;99.90
73438;DHT22;66471;56.532;21.020;2024-02-16T08:24:49;7.10;99.90
73438;DHT22;66471;56.532;21.020;2024-02-16T08:27:17;7.10;99.90
73438;DHT22;66471;56.532;21.020;2024-02-16T08:29:44;7.10;99.90
73438;DHT22;66471;56.532;21.020;2024-02-16T08:32:11;7.00;99.90
73438;DHT22;66471;56.532;21.020;2024-02-16T08:34:39;7.00;99.90
73438;DHT22;66471;56.532;21.020;2024-02-16T08:37:06;7.10;99.90
73438;DHT22;66471;56.532;21.020;2024-02-16T08:39:34;7.20;99.90
73438;DHT22;66471;56.532;21.020;2024-02-16T08:42:02;7.10;99.90
73438;DHT22;66471;56.532;21.020;2024-02-16T08:44:30;7.10;99.90
73438;DHT22;66471;56.532;21.020;2024-02-16T08:46:58;7.20;99.90
73438;DHT22;66471;56.532;21.020;2024-02-16T08:49:25;7.20;99.90
73438;DHT22;66471;56.532;21.020;2024-02-16T08:51:52;7.20;99.90
73438;DHT22;66471;56.532;21.020;2024-02-16T08:54:19;7.20;99.90
73438;DHT22;66471;56.532;21.020;2024-02-16T08:56:47;7.30;99.90
73438;DHT22;66471;56.532;21.020;2024-02-16T08:59:15;7.20;99.90
73438;DHT22;66471;56.532;21.020;2024-02-16T09:01:43;7.30;99.90
73438;DHT22;66471;56.532;21.020;2024-02-16T09:04:10;7.20;99.90
73438;DHT22;66471;56.532;21.020;2024-02-16T09:06:37;7.40;99.90
73438;DHT22;66471;56.532;21.020;2024-02-16T09:09:06;7.30;99.90
73438;DHT22;66471;56.532;21.020;2024-02-16T09:11:36;7.30;99.90
73438;DHT22;66471;56.532;21.020;2024-02-16T09:14:03;7.30;99.90
73438;DHT22;66471;56.532;21.020;2024-02-16T09:16:31;7.20;99.90
73438;DHT22;66471;56.532;21.020;2024-02-16T09:18:59;7.30;99.90
73438;DHT22;66471;56.532;21.020;2024-02-16T09:21:30;7.30;99.90
73438;DHT22;66471;56.532;21.020;2024-02-16T09:23:57;7.30;99.90
73438;DHT22;66471;56.532;21.020;2024-02-16T09:26:28;7.40;99.90
73438;DHT22;66471;56.532;21.020;2024-02-16T09:28:57;7.40;99.90
73438;DHT22;66471;56.532;21.020;2024-02-16T09:31:25;7.50;99.90
73438;DHT22;66471;56.532;21.020;2024-02-16T09:33:52;7.50;99.90
73438;DHT22;66471;56.532;21.020;2024-02-16T09:36:21;7.40;99.90
73438;DHT22;66471;56.532;21.020;2024-02-16T09:38:49;7.40;99.90
73438;DHT22;66471;56.532;21.020;2024-02-16T09:41:16;7.50;99.90
73438;DHT22;66471;56.532;21.020;2024-02-16T09:43:43;7.40;99.90
73438;DHT22;66471;56.532;21.020;2024-02-16T09:46:10;7.60;99.90
73438;DHT22;66471;56.532;21.020;2024-02-16T09:48:40;7.60;99.90
73438;DHT22;66471;56.532;21.020;2024-02-16T09:51:09;7.60;99.90
73438;DHT22;66471;56.532;21.020;2024-02-16T09:53:37;7.70;99.90
73438;DHT22;66471;56.532;21.020;2024-02-16T09:56:05;7.70;99.90
73438;DHT22;66471;56.532;21.020;2024-02-16T09:58:35;7.80;99.90
